Time;durP1;ratioP1;P1;durP2;ratioP2;P2;SDS_P1;SDS_P2;PMS_P1;PMS_P2;Temp;Humidity;BMP_temperature;BMP_pressure;BME280_temperature;BME280_humidity;BME280_pressure;Samples;Min_cycle;Max_cycle;Signal;HPM_P1;HPM_P2
2023/05/08 00:01:15;;;;;;;;;;;15.10;81.80;;;;;;5031554;28;20261;-81
2023/05/08 00:03:40;;;;;;;;;;;15.10;81.50;;;;;;5015118;28;19914;-81
2023/05/08 00:06:06;;;;;;;;;;;15.10;81.50;;;;;;5028422;28;20410;-80
2023/05/08 00:08:31;;;;;;;;;;;15.10;81.60;;;;;;5006865;28;20385;-81
2023/05/08 00:10:57;;;;;;;;;;;15.00;81.90;;;;;;5023419;28;19932;-81
2023/05/08 00:13:22;;;;;;;;;;;15.00;81.40;;;;;;5018073;28;19967;-81
2023/05/08 00:15:48;;;;;;;;;;;14.80;81.60;;;;;;5030702;28;19914;-82
2023/05/08 00:18:14;;;;;;;;;;;14.90;82.00;;;;;;5031178;28;19917;-82
2023/05/08 00:20:40;;;;;;;;;;;14.80;82.40;;;;;;5019829;28;19917;-82
2023/05/08 00:23:06;;;;;;;;;;;14.80;82.60;;;;;;5019586;28;20341;-82
2023/05/08 00:25:31;;;;;;;;;;;14.80;82.80;;;;;;5031315;28;19952;-81
2023/05/08 00:27:57;;;;;;;;;;;14.80;82.70;;;;;;5028679;28;19940;-81
2023/05/08 00:30:23;;;;;;;;;;;14.70;82.40;;;;;;5025275;28;19979;-82
2023/05/08 00:32:48;;;;;;;;;;;14.70;82.60;;;;;;5004324;28;19913;-82
2023/05/08 00:35:13;;;;;;;;;;;14.70;82.40;;;;;;5009648;28;19925;-82
2023/05/08 00:37:40;;;;;;;;;;;14.70;82.10;;;;;;5010100;28;19920;-80
2023/05/08 00:40:09;;;;;;;;;;;14.70;82.30;;;;;;5008355;28;19921;-81
2023/05/08 00:42:34;;;;;;;;;;;14.60;82.40;;;;;;5024625;28;19936;-81
2023/05/08 00:45:00;;;;;;;;;;;14.60;82.80;;;;;;5013721;28;19913;-81
2023/05/08 00:47:25;;;;;;;;;;;14.50;82.70;;;;;;5014026;28;19999;-80
2023/05/08 00:49:51;;;;;;;;;;;14.50;82.80;;;;;;5034347;28;19995;-81
2023/05/08 00:52:17;;;;;;;;;;;14.50;82.70;;;;;;5030386;28;19917;-79
2023/05/08 00:54:43;;;;;;;;;;;14.50;82.60;;;;;;5016883;28;19971;-81
2023/05/08 00:57:08;;;;;;;;;;;14.50;82.90;;;;;;5037026;28;20365;-81
2023/05/08 00:59:34;;;;;;;;;;;14.50;82.60;;;;;;5032855;28;20287;-81
2023/05/08 01:02:00;;;;;;;;;;;14.40;82.70;;;;;;5018532;28;19902;-81
2023/05/08 01:04:26;;;;;;;;;;;14.50;82.60;;;;;;5046427;28;19914;-80
2023/05/08 01:06:52;;;;;;;;;;;14.50;82.80;;;;;;5037310;28;19925;-81
2023/05/08 01:09:17;;;;;;;;;;;14.50;82.70;;;;;;5039245;28;19964;-82
2023/05/08 01:11:55;;;;;;;;;;;14.50;82.90;;;;;;5023099;28;19959;-80
2023/05/08 01:14:27;;;;;;;;;;;14.50;82.50;;;;;;5020487;28;19953;-80
2023/05/08 01:17:16;;;;;;;;;;;14.50;82.50;;;;;;5021894;28;19914;-81
2023/05/08 01:19:51;;;;;;;;;;;14.40;82.50;;;;;;5016102;28;20397;-81
2023/05/08 01:22:32;;;;;;;;;;;14.40;82.90;;;;;;5018147;28;20300;-81
2023/05/08 01:24:57;;;;;;;;;;;14.40;82.60;;;;;;5014089;28;19983;-81
2023/05/08 01:27:29;;;;;;;;;;;14.50;82.40;;;;;;5012686;28;20442;-81
2023/05/08 01:30:15;;;;;;;;;;;14.40;82.70;;;;;;5017757;28;19944;-81
2023/05/08 01:32:42;;;;;;;;;;;14.40;82.90;;;;;;5031604;28;19967;-80
2023/05/08 01:35:13;;;;;;;;;;;14.40;83.20;;;;;;5032077;28;19956;-81
2023/05/08 01:37:59;;;;;;;;;;;14.40;83.20;;;;;;5031497;28;19967;-81
2023/05/08 01:40:39;;;;;;;;;;;14.40;83.10;;;;;;4996267;28;20461;-81
2023/05/08 01:43:11;;;;;;;;;;;14.30;83.60;;;;;;5030475;28;19917;-81
2023/05/08 01:45:40;;;;;;;;;;;14.30;82.80;;;;;;5027912;28;19909;-80
2023/05/08 01:48:18;;;;;;;;;;;14.30;82.90;;;;;;5034208;28;19959;-81
2023/05/08 01:50:57;;;;;;;;;;;14.30;82.60;;;;;;5007763;28;19917;-80
2023/05/08 01:53:31;;;;;;;;;;;14.20;82.50;;;;;;5009885;28;19917;-81
2023/05/08 01:55:59;;;;;;;;;;;14.20;82.30;;;;;;5004334;28;19932;-81
2023/05/08 01:58:25;;;;;;;;;;;14.10;82.60;;;;;;5011792;28;19920;-80
2023/05/08 02:00:51;;;;;;;;;;;14.00;82.90;;;;;;5029159;28;20400;-81
2023/05/08 02:03:19;;;;;;;;;;;14.00;83.20;;;;;;5009267;28;20440;-81
2023/05/08 02:05:47;;;;;;;;;;;14.00;83.30;;;;;;5013511;28;19999;-81
2023/05/08 02:08:13;;;;;;;;;;;14.00;83.30;;;;;;5012871;28;19921;-80
2023/05/08 02:10:40;;;;;;;;;;;14.00;83.50;;;;;;5029509;28;19913;-81
2023/05/08 02:13:07;;;;;;;;;;;14.10;82.70;;;;;;5028733;28;20011;-81
2023/05/08 02:15:35;;;;;;;;;;;14.10;83.00;;;;;;5028610;28;19968;-81
2023/05/08 02:18:02;;;;;;;;;;;14.10;83.00;;;;;;5017872;28;19913;-82
2023/05/08 02:20:28;;;;;;;;;;;14.10;82.90;;;;;;5018659;28;19917;-81
2023/05/08 02:22:54;;;;;;;;;;;14.00;83.20;;;;;;5036781;28;19979;-81
2023/05/08 02:25:20;;;;;;;;;;;14.00;83.30;;;;;;5012855;28;20408;-81
2023/05/08 02:27:47;;;;;;;;;;;14.10;83.10;;;;;;5033982;28;19915;-81
2023/05/08 02:30:13;;;;;;;;;;;14.00;83.10;;;;;;5024526;28;19920;-81
2023/05/08 02:32:41;;;;;;;;;;;14.00;82.90;;;;;;5008034;28;19913;-81
2023/05/08 02:35:07;;;;;;;;;;;14.10;82.80;;;;;;5015920;28;20013;-81
2023/05/08 02:37:33;;;;;;;;;;;14.10;82.90;;;;;;5026687;28;19913;-81
2023/05/08 02:40:00;;;;;;;;;;;14.10;83.20;;;;;;5016737;28;19939;-81
2023/05/08 02:42:26;;;;;;;;;;;14.10;83.30;;;;;;5011243;28;19986;-81
2023/05/08 02:44:52;;;;;;;;;;;14.00;83.10;;;;;;5005899;28;19963;-81
2023/05/08 02:47:28;;;;;;;;;;;14.00;83.30;;;;;;5018179;28;19917;-81
2023/05/08 02:49:59;;;;;;;;;;;14.10;83.70;;;;;;5024602;28;20281;-81
2023/05/08 02:52:29;;;;;;;;;;;14.10;83.40;;;;;;5011136;28;20444;-81
2023/05/08 02:55:10;;;;;;;;;;;14.00;83.60;;;;;;5012559;28;20033;-81
2023/05/08 02:57:41;;;;;;;;;;;14.10;83.50;;;;;;5032794;28;20197;-82
2023/05/08 03:00:12;;;;;;;;;;;13.90;84.00;;;;;;5034541;28;19923;-82
2023/05/08 03:02:39;;;;;;;;;;;14.00;84.10;;;;;;5018474;28;19917;-82
2023/05/08 03:05:25;;;;;;;;;;;13.90;84.10;;;;;;5014606;28;19987;-82
2023/05/08 03:07:53;;;;;;;;;;;14.00;83.50;;;;;;5028067;28;19913;-81
2023/05/08 03:10:20;;;;;;;;;;;14.00;83.70;;;;;;5001143;28;20317;-80
2023/05/08 03:12:48;;;;;;;;;;;13.90;84.00;;;;;;5033083;28;19937;-81
2023/05/08 03:15:20;;;;;;;;;;;13.90;84.20;;;;;;5010853;28;19948;-82
2023/05/08 03:17:46;;;;;;;;;;;13.80;84.30;;;;;;5028222;28;19959;-81
2023/05/08 03:20:14;;;;;;;;;;;13.90;84.10;;;;;;5024573;28;19924;-81
2023/05/08 03:22:40;;;;;;;;;;;13.70;84.50;;;;;;5031929;28;20003;-82
2023/05/08 03:25:08;;;;;;;;;;;13.60;85.00;;;;;;5013695;28;20349;-82
2023/05/08 03:27:34;;;;;;;;;;;13.50;85.10;;;;;;5016920;28;20276;-82
2023/05/08 03:30:00;;;;;;;;;;;13.60;85.50;;;;;;5031647;28;20319;-81
2023/05/08 03:32:27;;;;;;;;;;;13.60;85.30;;;;;;5011724;28;19920;-81
2023/05/08 03:34:54;;;;;;;;;;;13.50;85.70;;;;;;5028929;28;19947;-81
2023/05/08 03:37:19;;;;;;;;;;;13.50;85.90;;;;;;5028061;28;19914;-81
2023/05/08 03:39:45;;;;;;;;;;;13.40;85.80;;;;;;5013741;28;19923;-81
2023/05/08 03:42:19;;;;;;;;;;;13.50;85.70;;;;;;5025818;28;20323;-82
2023/05/08 03:44:50;;;;;;;;;;;13.50;85.80;;;;;;5004783;28;19972;-81
2023/05/08 03:47:19;;;;;;;;;;;13.40;85.70;;;;;;5007812;28;19926;-80
2023/05/08 03:49:45;;;;;;;;;;;13.40;85.90;;;;;;5004182;28;19944;-81
2023/05/08 03:52:11;;;;;;;;;;;13.30;86.10;;;;;;5015707;28;19913;-81
2023/05/08 03:54:37;;;;;;;;;;;13.20;86.30;;;;;;5029409;28;19913;-82
2023/05/08 03:57:03;;;;;;;;;;;13.20;86.40;;;;;;5015962;28;19920;-81
2023/05/08 03:59:43;;;;;;;;;;;13.20;86.10;;;;;;5030875;28;19948;-81
2023/05/08 04:02:18;;;;;;;;;;;13.20;86.00;;;;;;5047154;28;19944;-80
2023/05/08 04:04:44;;;;;;;;;;;13.20;85.90;;;;;;5029502;28;19952;-82
2023/05/08 04:07:29;;;;;;;;;;;13.30;85.90;;;;;;5020858;28;20518;-82
2023/05/08 04:10:20;;;;;;;;;;;13.20;86.20;;;;;;5012574;28;19913;-80
2023/05/08 04:12:46;;;;;;;;;;;13.30;86.50;;;;;;5016374;28;19964;-81
2023/05/08 04:15:14;;;;;;;;;;;13.30;86.40;;;;;;5014987;28;19913;-81
2023/05/08 04:17:42;;;;;;;;;;;13.40;86.00;;;;;;5014708;28;19913;-81
2023/05/08 04:20:11;;;;;;;;;;;13.40;86.10;;;;;;5017311;28;19996;-82
2023/05/08 04:22:38;;;;;;;;;;;13.40;86.20;;;;;;5019459;28;19920;-82
2023/05/08 04:25:05;;;;;;;;;;;13.50;86.10;;;;;;5015451;28;19917;-80
2023/05/08 04:27:31;;;;;;;;;;;13.50;85.80;;;;;;5019792;28;19913;-81
2023/05/08 04:29:57;;;;;;;;;;;13.50;86.10;;;;;;5032982;28;20304;-80
2023/05/08 04:32:22;;;;;;;;;;;13.50;86.00;;;;;;5035945;28;19914;-81
2023/05/08 04:34:48;;;;;;;;;;;13.50;86.00;;;;;;5022926;28;19921;-81
2023/05/08 04:37:27;;;;;;;;;;;13.60;85.90;;;;;;5019291;28;19945;-80
2023/05/08 04:39:53;;;;;;;;;;;13.60;85.70;;;;;;5040893;22;19972;-83
2023/05/08 04:42:19;;;;;;;;;;;13.60;85.70;;;;;;5027882;28;20448;-83
2023/05/08 04:44:46;;;;;;;;;;;13.60;85.50;;;;;;5026649;28;20003;-83
2023/05/08 04:47:12;;;;;;;;;;;13.70;85.40;;;;;;5027730;28;19920;-83
2023/05/08 04:49:37;;;;;;;;;;;13.60;85.00;;;;;;5026074;28;19937;-83
2023/05/08 04:52:03;;;;;;;;;;;13.60;85.20;;;;;;5034959;28;20474;-83
2023/05/08 04:54:28;;;;;;;;;;;13.60;85.20;;;;;;5033409;28;19913;-83
2023/05/08 04:56:54;;;;;;;;;;;13.70;85.50;;;;;;5027613;28;19920;-84
2023/05/08 04:59:19;;;;;;;;;;;13.70;85.00;;;;;;5028923;28;20361;-84
2023/05/08 05:01:46;;;;;;;;;;;13.70;84.40;;;;;;5035925;28;19916;-89
2023/05/08 05:04:12;;;;;;;;;;;13.60;84.40;;;;;;5021735;28;19991;-83
2023/05/08 05:06:37;;;;;;;;;;;13.70;84.10;;;;;;5031151;28;20348;-83
2023/05/08 05:09:04;;;;;;;;;;;13.70;84.10;;;;;;5037287;28;19909;-81
2023/05/08 05:11:29;;;;;;;;;;;13.80;84.30;;;;;;5011367;28;19921;-84
2023/05/08 05:13:55;;;;;;;;;;;13.90;84.20;;;;;;5028988;28;20367;-86
2023/05/08 05:16:20;;;;;;;;;;;13.90;84.00;;;;;;5040372;28;19913;-84
2023/05/08 05:18:46;;;;;;;;;;;14.00;84.00;;;;;;5024646;28;19936;-86
2023/05/08 05:21:12;;;;;;;;;;;14.10;83.90;;;;;;5021788;28;19921;-86
2023/05/08 05:23:37;;;;;;;;;;;14.20;82.80;;;;;;5031199;28;19913;-86
2023/05/08 05:26:03;;;;;;;;;;;14.20;82.60;;;;;;5034217;28;19917;-85
2023/05/08 05:28:28;;;;;;;;;;;14.30;82.80;;;;;;5010953;28;19968;-86
2023/05/08 05:33:48;;;;;;;;;;;14.30;82.90;;;;;;4996110;28;19959;-87
2023/05/08 05:36:14;;;;;;;;;;;14.50;82.90;;;;;;5039941;28;20004;-84
2023/05/08 05:38:39;;;;;;;;;;;14.90;81.50;;;;;;5031102;28;19930;-85
2023/05/08 05:41:05;;;;;;;;;;;15.10;81.10;;;;;;5017732;28;19967;-83
2023/05/08 05:43:31;;;;;;;;;;;15.30;79.90;;;;;;5030420;28;19913;-85
2023/05/08 05:46:02;;;;;;;;;;;15.40;79.50;;;;;;5027293;28;19913;-84
2023/05/08 05:48:27;;;;;;;;;;;15.20;79.60;;;;;;5020230;28;19936;-85
2023/05/08 05:50:53;;;;;;;;;;;15.30;80.10;;;;;;5034583;28;19917;-83
2023/05/08 05:53:18;;;;;;;;;;;15.30;80.20;;;;;;5035949;28;19971;-84
2023/05/08 05:55:44;;;;;;;;;;;15.30;80.10;;;;;;5052129;28;19996;-84
2023/05/08 05:58:09;;;;;;;;;;;15.40;80.00;;;;;;5037514;28;19913;-85
2023/05/08 06:00:35;;;;;;;;;;;15.50;79.90;;;;;;5022056;28;19917;-84
2023/05/08 06:03:01;;;;;;;;;;;15.70;80.00;;;;;;5015277;28;20292;-85
2023/05/08 06:05:27;;;;;;;;;;;16.00;80.00;;;;;;5014606;28;19924;-84
2023/05/08 06:07:53;;;;;;;;;;;16.10;79.00;;;;;;5036080;28;19913;-84
2023/05/08 06:10:18;;;;;;;;;;;16.00;79.10;;;;;;5035809;28;19914;-84
2023/05/08 06:12:44;;;;;;;;;;;16.30;79.90;;;;;;5018979;28;20343;-84
2023/05/08 06:15:10;;;;;;;;;;;16.50;79.10;;;;;;5036176;28;19913;-84
2023/05/08 06:17:36;;;;;;;;;;;16.50;78.50;;;;;;5024178;28;19920;-82
2023/05/08 06:20:02;;;;;;;;;;;16.20;79.20;;;;;;5036297;28;19925;-84
2023/05/08 06:22:28;;;;;;;;;;;16.00;80.30;;;;;;5037540;28;19913;-83
2023/05/08 06:24:54;;;;;;;;;;;15.90;80.40;;;;;;5018645;28;19913;-83
2023/05/08 06:27:21;;;;;;;;;;;15.80;80.80;;;;;;5017451;28;20016;-84
2023/05/08 06:29:51;;;;;;;;;;;15.80;81.40;;;;;;5033089;28;19913;-85
2023/05/08 06:32:17;;;;;;;;;;;15.70;81.80;;;;;;5016688;28;20343;-85
2023/05/08 06:34:43;;;;;;;;;;;15.80;81.90;;;;;;5024604;28;19910;-85
2023/05/08 06:37:08;;;;;;;;;;;15.80;81.90;;;;;;5031467;28;20600;-86
2023/05/08 06:39:34;;;;;;;;;;;15.80;81.90;;;;;;5034791;28;19975;-85
2023/05/08 06:41:59;;;;;;;;;;;15.80;82.00;;;;;;5017041;28;20308;-85
2023/05/08 06:44:25;;;;;;;;;;;15.80;82.30;;;;;;5016463;28;20296;-85
2023/05/08 06:46:50;;;;;;;;;;;15.80;82.60;;;;;;5016891;28;19917;-85
2023/05/08 06:49:16;;;;;;;;;;;15.70;82.50;;;;;;5033234;28;19947;-85
2023/05/08 06:51:42;;;;;;;;;;;15.70;82.70;;;;;;5015488;28;19913;-84
2023/05/08 06:54:07;;;;;;;;;;;15.90;82.70;;;;;;5032633;28;20377;-85
2023/05/08 06:56:33;;;;;;;;;;;16.00;82.90;;;;;;5014269;28;19913;-86
2023/05/08 06:58:59;;;;;;;;;;;16.00;82.90;;;;;;5016422;28;19913;-85
2023/05/08 07:01:25;;;;;;;;;;;16.10;82.70;;;;;;5020069;28;19917;-85
2023/05/08 07:03:53;;;;;;;;;;;16.10;82.80;;;;;;5032200;28;19919;-84
2023/05/08 07:06:19;;;;;;;;;;;16.10;82.90;;;;;;5020340;28;20373;-84
2023/05/08 07:08:44;;;;;;;;;;;16.20;83.00;;;;;;5026610;28;19920;-84
2023/05/08 07:11:10;;;;;;;;;;;16.20;82.50;;;;;;5032297;28;19987;-84
2023/05/08 07:13:35;;;;;;;;;;;16.20;82.40;;;;;;5033703;28;19920;-82
2023/05/08 07:16:01;;;;;;;;;;;16.50;82.40;;;;;;5033197;28;19910;-84
2023/05/08 07:18:26;;;;;;;;;;;16.60;82.10;;;;;;5015709;28;19996;-84
2023/05/08 07:20:54;;;;;;;;;;;16.70;81.90;;;;;;5017823;28;19928;-85
2023/05/08 07:23:20;;;;;;;;;;;16.80;81.80;;;;;;5021628;28;20000;-84
2023/05/08 07:25:46;;;;;;;;;;;16.90;82.00;;;;;;5006924;28;19941;-84
2023/05/08 07:28:12;;;;;;;;;;;17.00;82.40;;;;;;5024289;28;19913;-85
2023/05/08 07:30:38;;;;;;;;;;;17.10;82.50;;;;;;5026369;28;19924;-85
2023/05/08 07:33:06;;;;;;;;;;;17.10;82.60;;;;;;5024281;28;20000;-85
2023/05/08 07:35:31;;;;;;;;;;;17.30;82.00;;;;;;5040721;28;20431;-84
2023/05/08 07:37:57;;;;;;;;;;;17.40;81.70;;;;;;5014659;28;20007;-84
2023/05/08 07:40:22;;;;;;;;;;;17.30;81.90;;;;;;5031605;28;19917;-84
2023/05/08 07:42:48;;;;;;;;;;;17.40;82.00;;;;;;5033454;28;19963;-84
2023/05/08 07:45:13;;;;;;;;;;;17.50;82.00;;;;;;5030195;28;19921;-85
2023/05/08 07:47:47;;;;;;;;;;;17.50;81.20;;;;;;5032430;28;19921;-84
2023/05/08 07:50:13;;;;;;;;;;;17.60;80.60;;;;;;5033959;28;19925;-83
2023/05/08 07:52:38;;;;;;;;;;;17.70;80.50;;;;;;5034332;28;20406;-82
2023/05/08 07:55:04;;;;;;;;;;;17.80;80.70;;;;;;5033580;28;19913;-83
2023/05/08 07:57:34;;;;;;;;;;;17.80;80.80;;;;;;5054193;28;19909;-85
2023/05/08 08:00:00;;;;;;;;;;;17.70;81.10;;;;;;5030974;28;19921;-81
2023/05/08 08:02:26;;;;;;;;;;;17.60;80.90;;;;;;5045510;28;19933;-81
2023/05/08 08:04:51;;;;;;;;;;;17.60;80.90;;;;;;5038888;28;19921;-81
2023/05/08 08:07:16;;;;;;;;;;;17.70;81.00;;;;;;5037972;28;19917;-82
2023/05/08 08:09:42;;;;;;;;;;;17.80;80.90;;;;;;5061166;28;19941;-86
2023/05/08 08:12:08;;;;;;;;;;;18.00;80.60;;;;;;5056680;28;19912;-87
2023/05/08 08:14:33;;;;;;;;;;;18.00;79.90;;;;;;5061557;28;19965;-87
2023/05/08 08:16:59;;;;;;;;;;;17.90;80.00;;;;;;5049984;28;19976;-87
2023/05/08 08:19:40;;;;;;;;;;;17.80;80.30;;;;;;5058420;28;19924;-86
2023/05/08 08:22:06;;;;;;;;;;;18.00;79.60;;;;;;5052554;28;19931;-87
2023/05/08 08:24:34;;;;;;;;;;;17.90;79.50;;;;;;5058759;28;19917;-86
2023/05/08 08:26:59;;;;;;;;;;;18.00;79.70;;;;;;5021922;28;19923;-86
2023/05/08 08:29:25;;;;;;;;;;;18.00;79.60;;;;;;5032554;28;19972;-85
2023/05/08 08:31:50;;;;;;;;;;;18.00;80.00;;;;;;5030424;28;19964;-86
2023/05/08 08:34:16;;;;;;;;;;;18.10;79.60;;;;;;5013940;28;19923;-84
2023/05/08 08:36:42;;;;;;;;;;;18.10;79.60;;;;;;5029662;28;19970;-85
2023/05/08 08:39:07;;;;;;;;;;;18.10;79.80;;;;;;5030552;28;19913;-87
2023/05/08 08:41:53;;;;;;;;;;;18.10;79.90;;;;;;5027506;28;19932;-87
2023/05/08 08:44:19;;;;;;;;;;;18.20;79.90;;;;;;5026606;28;19919;-86
2023/05/08 08:46:54;;;;;;;;;;;18.20;79.50;;;;;;5047276;28;19913;-87
2023/05/08 08:49:45;;;;;;;;;;;18.20;79.20;;;;;;5046156;28;19921;-88
2023/05/08 08:52:21;;;;;;;;;;;18.30;78.90;;;;;;5030028;28;20508;-87
2023/05/08 08:54:48;;;;;;;;;;;18.30;78.80;;;;;;5030077;28;19913;-88
2023/05/08 08:57:20;;;;;;;;;;;18.30;78.60;;;;;;5021528;28;19913;-90
2023/05/08 08:59:46;;;;;;;;;;;18.30;78.90;;;;;;5019698;28;19924;-89
2023/05/08 09:02:22;;;;;;;;;;;18.50;78.70;;;;;;5024353;28;20007;-87
2023/05/08 09:04:50;;;;;;;;;;;18.50;78.10;;;;;;5023407;28;19954;-88
2023/05/08 09:07:28;;;;;;;;;;;;;;;;;;;;;
2023/05/08 09:10:00;;;;;;;;;;;18.50;78.10;;;;;;5032896;28;19919;-87
2023/05/08 09:12:25;;;;;;;;;;;18.40;78.30;;;;;;5024255;28;19920;-87
2023/05/08 09:15:10;;;;;;;;;;;18.50;78.60;;;;;;5033087;28;19921;-87
2023/05/08 09:17:47;;;;;;;;;;;18.50;78.10;;;;;;5019734;28;20315;-88
2023/05/08 09:20:13;;;;;;;;;;;18.60;77.60;;;;;;5022775;28;19960;-88
2023/05/08 09:29:06;;;;;;;;;;;18.50;77.60;;;;;;4989521;28;19955;-88
2023/05/08 09:31:35;;;;;;;;;;;18.60;77.40;;;;;;5016822;28;19921;-85
2023/05/08 09:34:01;;;;;;;;;;;18.50;77.40;;;;;;5041320;28;20352;-86
2023/05/08 09:36:29;;;;;;;;;;;18.60;77.00;;;;;;5022654;28;19929;-87
2023/05/08 09:38:54;;;;;;;;;;;18.50;77.10;;;;;;5015661;28;19921;-86
2023/05/08 09:41:22;;;;;;;;;;;18.50;77.10;;;;;;5035236;28;20574;-86
2023/05/08 09:44:02;;;;;;;;;;;18.50;76.90;;;;;;5017162;28;19913;-86
2023/05/08 09:46:28;;;;;;;;;;;18.50;77.50;;;;;;5018362;28;19996;-86
2023/05/08 09:48:54;;;;;;;;;;;18.60;77.60;;;;;;5008703;28;19964;-86
2023/05/08 09:51:21;;;;;;;;;;;18.60;77.50;;;;;;5017134;28;19975;-88
2023/05/08 09:53:48;;;;;;;;;;;18.70;77.20;;;;;;5029066;28;19913;-86
2023/05/08 09:58:42;;;;;;;;;;;18.50;77.00;;;;;;5036999;28;19925;-85
2023/05/08 10:01:29;;;;;;;;;;;18.50;77.00;;;;;;5016517;28;19923;-86
2023/05/08 10:03:54;;;;;;;;;;;18.50;77.00;;;;;;5013599;28;19921;-85
2023/05/08 10:06:20;;;;;;;;;;;18.30;77.70;;;;;;5011887;28;19981;-85
2023/05/08 10:08:47;;;;;;;;;;;18.20;78.30;;;;;;5005174;28;19924;-87
2023/05/08 10:11:16;;;;;;;;;;;18.20;78.10;;;;;;5019090;28;19924;-86
2023/05/08 10:13:45;;;;;;;;;;;18.30;77.90;;;;;;5035118;28;19963;-85
2023/05/08 10:16:15;;;;;;;;;;;18.30;78.00;;;;;;5014831;28;19921;-85
2023/05/08 10:18:48;;;;;;;;;;;18.30;77.90;;;;;;5017212;28;20004;-86
2023/05/08 10:21:14;;;;;;;;;;;18.20;78.30;;;;;;5019253;28;20431;-86
2023/05/08 10:23:41;;;;;;;;;;;18.30;78.20;;;;;;5033996;28;19947;-84
2023/05/08 10:26:11;;;;;;;;;;;18.20;77.50;;;;;;5011850;28;19918;-86
2023/05/08 10:28:53;;;;;;;;;;;18.20;77.60;;;;;;5038783;28;20380;-86
2023/05/08 10:31:20;;;;;;;;;;;18.40;77.60;;;;;;5014052;28;19921;-87
2023/05/08 10:33:50;;;;;;;;;;;18.40;77.80;;;;;;5028959;28;19991;-86
2023/05/08 10:36:15;;;;;;;;;;;18.50;77.60;;;;;;5006883;28;19921;-86
2023/05/08 10:38:42;;;;;;;;;;;18.50;77.90;;;;;;5038737;28;19947;-86
2023/05/08 10:41:17;;;;;;;;;;;18.50;77.70;;;;;;5075202;23;19936;-88
2023/05/08 10:43:43;;;;;;;;;;;18.50;77.50;;;;;;5006173;28;19918;-85
2023/05/08 10:46:21;;;;;;;;;;;18.60;77.20;;;;;;5009411;28;19967;-84
2023/05/08 10:48:53;;;;;;;;;;;18.60;77.20;;;;;;5029265;28;19949;-84
2023/05/08 10:51:37;;;;;;;;;;;18.60;77.30;;;;;;5010886;28;20359;-86
2023/05/08 10:54:18;;;;;;;;;;;18.70;77.60;;;;;;5027202;28;19925;-84
2023/05/08 10:56:43;;;;;;;;;;;18.70;77.70;;;;;;5013024;28;19913;-84
2023/05/08 10:59:16;;;;;;;;;;;18.70;78.00;;;;;;5015714;28;20433;-86
2023/05/08 11:01:42;;;;;;;;;;;18.70;78.50;;;;;;5011121;28;20040;-87
2023/05/08 11:04:21;;;;;;;;;;;18.80;78.50;;;;;;5012105;28;20602;-87
2023/05/08 11:06:47;;;;;;;;;;;18.90;77.80;;;;;;5010212;28;20354;-87
2023/05/08 11:09:14;;;;;;;;;;;18.90;77.90;;;;;;5009766;28;19914;-88
2023/05/08 11:11:39;;;;;;;;;;;18.80;77.90;;;;;;5011028;28;20375;-86
2023/05/08 11:14:08;;;;;;;;;;;18.80;77.40;;;;;;5010891;28;19909;-87
2023/05/08 11:16:52;;;;;;;;;;;18.90;77.20;;;;;;5024148;28;20405;-88
2023/05/08 11:19:18;;;;;;;;;;;19.00;77.20;;;;;;5026439;28;19974;-87
2023/05/08 11:22:02;;;;;;;;;;;19.00;77.90;;;;;;5013101;28;19914;-85
2023/05/08 11:24:37;;;;;;;;;;;19.20;78.00;;;;;;5023156;28;19918;-87
2023/05/08 11:27:02;;;;;;;;;;;19.30;78.40;;;;;;5009774;28;19913;-88
2023/05/08 11:29:28;;;;;;;;;;;19.50;77.40;;;;;;5007455;28;20272;-87
2023/05/08 11:31:53;;;;;;;;;;;19.30;76.80;;;;;;5010331;28;19920;-86
2023/05/08 11:34:37;;;;;;;;;;;19.30;77.40;;;;;;5010901;28;19918;-86
2023/05/08 11:37:07;;;;;;;;;;;19.50;75.40;;;;;;5023878;28;19914;-87
2023/05/08 11:39:32;;;;;;;;;;;19.50;75.90;;;;;;5009682;28;19952;-87
2023/05/08 11:42:17;;;;;;;;;;;19.50;74.90;;;;;;5026813;28;19961;-87
2023/05/08 11:44:43;;;;;;;;;;;19.50;74.40;;;;;;5026307;28;19914;-87
2023/05/08 11:47:10;;;;;;;;;;;19.60;74.00;;;;;;5006960;28;19914;-87
2023/05/08 11:49:36;;;;;;;;;;;19.70;74.10;;;;;;5007267;28;20410;-86
2023/05/08 11:52:03;;;;;;;;;;;19.80;73.80;;;;;;5006650;28;19922;-87
2023/05/08 11:54:29;;;;;;;;;;;19.80;73.30;;;;;;5007519;28;19921;-87
2023/05/08 11:56:56;;;;;;;;;;;19.80;73.30;;;;;;5007851;28;19928;-87
2023/05/08 11:59:21;;;;;;;;;;;19.90;73.80;;;;;;5025024;28;19922;-87
2023/05/08 12:01:47;;;;;;;;;;;20.00;74.50;;;;;;5009838;28;19913;-88
2023/05/08 12:05:01;;;;;;;;;;;;;;;;;;;;;
2023/05/08 12:07:27;;;;;;;;;;;20.10;71.40;;;;;;5017238;28;19984;-88
2023/05/08 12:09:53;;;;;;;;;;;20.00;72.50;;;;;;5007232;28;20004;-85
2023/05/08 12:12:18;;;;;;;;;;;20.30;73.00;;;;;;5006960;28;20051;-85
2023/05/08 12:14:47;;;;;;;;;;;20.40;73.30;;;;;;5013428;28;19929;-86
2023/05/08 12:17:15;;;;;;;;;;;20.50;73.30;;;;;;5013161;28;19956;-86
2023/05/08 12:19:41;;;;;;;;;;;20.40;74.20;;;;;;5007449;28;19918;-85
2023/05/08 12:22:07;;;;;;;;;;;20.40;73.50;;;;;;5012031;28;19963;-85
2023/05/08 12:24:32;;;;;;;;;;;20.50;73.50;;;;;;5014313;28;19930;-86
2023/05/08 12:26:59;;;;;;;;;;;20.60;73.30;;;;;;5010770;28;19914;-86
2023/05/08 12:29:24;;;;;;;;;;;20.70;72.70;;;;;;5013305;28;19921;-86
2023/05/08 12:31:50;;;;;;;;;;;20.60;72.20;;;;;;5011709;28;19914;-86
2023/05/08 12:34:16;;;;;;;;;;;20.50;71.90;;;;;;5012883;28;20003;-85
2023/05/08 12:36:41;;;;;;;;;;;20.50;72.60;;;;;;5012989;28;19935;-86
2023/05/08 12:39:07;;;;;;;;;;;20.60;72.60;;;;;;5011533;28;20015;-85
2023/05/08 12:41:33;;;;;;;;;;;20.80;71.30;;;;;;5010875;28;19928;-86
2023/05/08 12:43:58;;;;;;;;;;;20.90;71.60;;;;;;5032229;28;19917;-86
2023/05/08 12:46:24;;;;;;;;;;;21.10;71.90;;;;;;5019525;28;19917;-86
2023/05/08 12:48:49;;;;;;;;;;;21.00;71.60;;;;;;5013113;28;19922;-86
2023/05/08 12:51:18;;;;;;;;;;;21.10;69.20;;;;;;5015058;28;19944;-86
2023/05/08 12:53:45;;;;;;;;;;;21.00;69.90;;;;;;5014316;28;19968;-87
2023/05/08 12:56:10;;;;;;;;;;;21.10;70.60;;;;;;5014358;28;20375;-85
2023/05/08 12:58:36;;;;;;;;;;;21.00;70.00;;;;;;5017614;28;20005;-85
2023/05/08 13:01:08;;;;;;;;;;;20.90;68.30;;;;;;5010951;28;19949;-86
2023/05/08 13:03:34;;;;;;;;;;;21.00;67.30;;;;;;5011618;28;19944;-85
2023/05/08 13:06:00;;;;;;;;;;;21.10;66.70;;;;;;5029720;28;19917;-85
2023/05/08 13:08:30;;;;;;;;;;;21.10;68.10;;;;;;5011759;28;20012;-85
2023/05/08 13:10:55;;;;;;;;;;;21.20;67.80;;;;;;5012692;28;20016;-85
2023/05/08 13:13:21;;;;;;;;;;;21.10;67.80;;;;;;5013985;28;20687;-86
2023/05/08 13:15:47;;;;;;;;;;;21.00;67.50;;;;;;5013780;28;19922;-86
2023/05/08 13:18:16;;;;;;;;;;;21.10;66.80;;;;;;5012293;28;19914;-86
2023/05/08 13:20:42;;;;;;;;;;;21.10;67.30;;;;;;5014357;28;19991;-86
2023/05/08 13:23:08;;;;;;;;;;;21.20;67.30;;;;;;5013062;28;20427;-85
2023/05/08 13:25:37;;;;;;;;;;;21.30;66.90;;;;;;5017182;28;19925;-85
2023/05/08 13:28:03;;;;;;;;;;;21.20;66.20;;;;;;5037770;28;19906;-85
2023/05/08 13:30:32;;;;;;;;;;;21.10;66.70;;;;;;5031783;28;19925;-85
2023/05/08 13:32:58;;;;;;;;;;;21.10;66.90;;;;;;5015320;28;19913;-85
2023/05/08 13:35:24;;;;;;;;;;;20.90;67.90;;;;;;5012359;28;19917;-85
2023/05/08 13:37:49;;;;;;;;;;;20.70;69.90;;;;;;5029238;28;19924;-86
2023/05/08 13:40:25;;;;;;;;;;;20.60;70.10;;;;;;5013694;28;20441;-84
2023/05/08 13:42:56;;;;;;;;;;;20.50;69.90;;;;;;5009292;28;19948;-84
2023/05/08 13:45:25;;;;;;;;;;;20.50;71.10;;;;;;5013045;28;19909;-84
2023/05/08 13:50:44;;;;;;;;;;;20.80;69.30;;;;;;5010305;28;19918;-84
2023/05/08 13:53:18;;;;;;;;;;;20.70;70.10;;;;;;5042107;28;20382;-84
2023/05/08 13:55:44;;;;;;;;;;;20.80;68.50;;;;;;5019565;28;19921;-85
2023/05/08 13:58:09;;;;;;;;;;;20.80;68.80;;;;;;5018009;28;19913;-83
2023/05/08 14:00:35;;;;;;;;;;;20.90;69.70;;;;;;5022222;28;19972;-84
2023/05/08 14:03:00;;;;;;;;;;;20.70;70.80;;;;;;5015969;28;19953;-85
2023/05/08 14:05:25;;;;;;;;;;;20.60;70.80;;;;;;5015506;28;19913;-85
2023/05/08 14:07:51;;;;;;;;;;;20.50;71.20;;;;;;5027239;28;19917;-84
2023/05/08 14:10:17;;;;;;;;;;;20.50;70.70;;;;;;5025827;28;19913;-85
2023/05/08 14:12:45;;;;;;;;;;;20.60;70.40;;;;;;5018405;28;19909;-85
2023/05/08 14:15:11;;;;;;;;;;;20.60;70.30;;;;;;5015867;28;20294;-84
2023/05/08 14:20:58;;;;;;;;;;;20.80;69.70;;;;;;5015181;28;20291;-83
2023/05/08 14:23:37;;;;;;;;;;;20.80;68.90;;;;;;5030715;28;20797;-85
2023/05/08 14:26:20;;;;;;;;;;;20.70;69.90;;;;;;5012649;28;19940;-85
2023/05/08 14:28:45;;;;;;;;;;;20.50;70.50;;;;;;5028837;28;20379;-88
2023/05/08 14:31:11;;;;;;;;;;;20.60;70.90;;;;;;5012833;28;19920;-85
2023/05/08 14:33:37;;;;;;;;;;;20.60;71.20;;;;;;5014642;28;19914;-84
2023/05/08 14:36:02;;;;;;;;;;;20.60;71.60;;;;;;5007606;28;19918;-87
2023/05/08 14:38:28;;;;;;;;;;;20.60;70.50;;;;;;5011298;28;19917;-87
2023/05/08 14:41:02;;;;;;;;;;;20.60;71.40;;;;;;5033646;28;20012;-86
2023/05/08 14:43:27;;;;;;;;;;;20.70;70.40;;;;;;5012116;28;19922;-87